Time;durP1;ratioP1;P1;durP2;ratioP2;P2;SDS_P1;SDS_P2;PMS_P1;PMS_P2;Temp;Humidity;BMP_temperature;BMP_pressure;BME280_temperature;BME280_humidity;BME280_pressure;Samples;Min_cycle;Max_cycle;Signal;HPM_P1;HPM_P2
2023/11/18 00:00:47;;;;;;;;;;;21.60;39.90;;;;;;5117528;28;19982;-53
2023/11/18 00:03:14;;;;;;;;;;;21.60;39.90;;;;;;5117837;28;20030;-54
2023/11/18 00:05:41;;;;;;;;;;;21.50;39.80;;;;;;5117936;28;19993;-52
2023/11/18 00:08:08;;;;;;;;;;;21.60;39.80;;;;;;5117706;28;20419;-53
2023/11/18 00:10:35;;;;;;;;;;;21.60;39.80;;;;;;5117707;28;19978;-53
2023/11/18 00:13:03;;;;;;;;;;;21.50;39.80;;;;;;5117543;28;20286;-55
2023/11/18 00:15:30;;;;;;;;;;;21.60;39.80;;;;;;5117394;28;19924;-52
2023/11/18 00:17:57;;;;;;;;;;;21.50;39.80;;;;;;5117210;28;20329;-56
2023/11/18 00:20:24;;;;;;;;;;;21.50;39.80;;;;;;5117603;28;19924;-52
2023/11/18 00:22:52;;;;;;;;;;;21.50;39.80;;;;;;5116981;28;20398;-56
2023/11/18 00:25:20;;;;;;;;;;;21.50;39.80;;;;;;5117569;28;19969;-53
2023/11/18 00:27:47;;;;;;;;;;;21.50;39.80;;;;;;5117096;28;19927;-51
2023/11/18 00:30:14;;;;;;;;;;;21.50;39.80;;;;;;5116826;28;19927;-53
2023/11/18 00:32:41;;;;;;;;;;;21.50;39.80;;;;;;5117402;28;19924;-52
2023/11/18 00:35:10;;;;;;;;;;;21.50;39.80;;;;;;5116662;28;19986;-56
2023/11/18 00:37:37;;;;;;;;;;;21.50;39.70;;;;;;5116675;28;20014;-53
2023/11/18 00:40:04;;;;;;;;;;;21.50;39.70;;;;;;5117189;28;19924;-55
2023/11/18 00:42:31;;;;;;;;;;;21.50;39.70;;;;;;5116695;28;19927;-53
2023/11/18 00:44:58;;;;;;;;;;;21.50;39.70;;;;;;5115605;28;19923;-54
2023/11/18 00:47:25;;;;;;;;;;;21.40;39.70;;;;;;5116602;28;19924;-53
2023/11/18 00:49:53;;;;;;;;;;;21.50;39.70;;;;;;5115336;28;19931;-53
2023/11/18 00:52:21;;;;;;;;;;;21.40;39.70;;;;;;5116691;28;19930;-55
2023/11/18 00:54:48;;;;;;;;;;;21.40;39.60;;;;;;5116500;28;19986;-56
2023/11/18 00:57:15;;;;;;;;;;;21.50;39.70;;;;;;5116751;28;19946;-56
2023/11/18 00:59:43;;;;;;;;;;;21.40;39.60;;;;;;5116541;28;19975;-52
2023/11/18 01:02:10;;;;;;;;;;;21.40;39.60;;;;;;5116769;28;19927;-54
2023/11/18 01:04:40;;;;;;;;;;;21.40;39.60;;;;;;5116395;28;19935;-57
2023/11/18 01:07:08;;;;;;;;;;;21.50;39.60;;;;;;5116665;28;19928;-56
2023/11/18 01:09:38;;;;;;;;;;;21.40;39.60;;;;;;5116654;28;20019;-54
2023/11/18 01:12:09;;;;;;;;;;;21.40;39.60;;;;;;5116543;28;19928;-55
2023/11/18 01:14:37;;;;;;;;;;;21.40;39.60;;;;;;5116125;28;19924;-56
2023/11/18 01:17:06;;;;;;;;;;;21.40;39.60;;;;;;5115937;28;20286;-56
2023/11/18 01:19:36;;;;;;;;;;;21.40;39.60;;;;;;5116477;28;19946;-51
2023/11/18 01:22:06;;;;;;;;;;;21.40;39.60;;;;;;5116465;28;20344;-52
2023/11/18 01:24:33;;;;;;;;;;;21.40;39.60;;;;;;5114957;28;19930;-54
2023/11/18 01:27:01;;;;;;;;;;;21.40;39.60;;;;;;5115814;28;19924;-55
2023/11/18 01:29:28;;;;;;;;;;;21.40;39.50;;;;;;5106009;28;20319;-55
2023/11/18 01:31:58;;;;;;;;;;;21.40;39.50;;;;;;5095500;28;19967;-56
2023/11/18 01:34:25;;;;;;;;;;;21.40;39.50;;;;;;5095341;28;19932;-54
2023/11/18 01:36:52;;;;;;;;;;;21.40;39.50;;;;;;5095312;28;19928;-48
2023/11/18 01:39:20;;;;;;;;;;;21.40;39.40;;;;;;5077495;28;20011;-55
2023/11/18 01:41:49;;;;;;;;;;;21.40;39.40;;;;;;5095388;28;19935;-54
2023/11/18 01:44:17;;;;;;;;;;;21.40;39.40;;;;;;5095557;28;19924;-55
2023/11/18 01:46:45;;;;;;;;;;;21.40;39.40;;;;;;5095308;28;19931;-51
2023/11/18 01:49:17;;;;;;;;;;;21.40;39.50;;;;;;5095042;28;19928;-52
2023/11/18 01:51:45;;;;;;;;;;;21.40;39.50;;;;;;5077908;28;19931;-53
2023/11/18 01:54:19;;;;;;;;;;;21.40;39.40;;;;;;5095007;28;19924;-51
2023/11/18 01:56:47;;;;;;;;;;;21.40;39.40;;;;;;5094550;28;19976;-54
2023/11/18 01:59:18;;;;;;;;;;;21.40;39.40;;;;;;5096848;28;20035;-52
2023/11/18 02:01:49;;;;;;;;;;;21.40;39.40;;;;;;5115119;28;19924;-53
2023/11/18 02:04:19;;;;;;;;;;;21.40;39.40;;;;;;5097332;28;19930;-49
2023/11/18 02:06:50;;;;;;;;;;;21.40;39.40;;;;;;5097076;28;19930;-54
2023/11/18 02:09:18;;;;;;;;;;;21.40;39.40;;;;;;5115378;28;19976;-51
2023/11/18 02:12:04;;;;;;;;;;;21.40;39.40;;;;;;5115413;28;19974;-51
2023/11/18 02:14:33;;;;;;;;;;;21.40;39.40;;;;;;5115152;28;19924;-54
2023/11/18 02:17:02;;;;;;;;;;;21.40;39.50;;;;;;5114859;28;20021;-55
2023/11/18 02:19:30;;;;;;;;;;;21.30;39.40;;;;;;5114765;28;20014;-55
2023/11/18 02:21:57;;;;;;;;;;;21.30;39.40;;;;;;5115103;28;19924;-51
2023/11/18 02:24:30;;;;;;;;;;;21.40;39.40;;;;;;5114796;28;19928;-52
2023/11/18 02:26:57;;;;;;;;;;;21.30;39.40;;;;;;5114488;28;20364;-50
2023/11/18 02:29:26;;;;;;;;;;;21.40;39.40;;;;;;5114714;28;19927;-51
2023/11/18 02:31:56;;;;;;;;;;;21.30;39.40;;;;;;5114466;28;19924;-52
2023/11/18 02:34:25;;;;;;;;;;;21.30;39.40;;;;;;5106878;28;19930;-52
2023/11/18 02:36:53;;;;;;;;;;;21.30;39.40;;;;;;5114336;28;19993;-55
2023/11/18 02:39:22;;;;;;;;;;;21.40;39.50;;;;;;5106678;28;20325;-53
2023/11/18 02:41:52;;;;;;;;;;;21.30;39.60;;;;;;5114241;28;20338;-54
2023/11/18 02:44:23;;;;;;;;;;;21.40;39.50;;;;;;5114645;28;19931;-52
2023/11/18 02:46:50;;;;;;;;;;;21.30;39.40;;;;;;5114222;28;19928;-50
2023/11/18 02:49:17;;;;;;;;;;;21.30;39.40;;;;;;5114827;28;19924;-55
2023/11/18 02:51:47;;;;;;;;;;;21.40;39.50;;;;;;5114302;28;19927;-52
2023/11/18 02:54:16;;;;;;;;;;;21.30;39.40;;;;;;5114575;28;20490;-53
2023/11/18 02:56:43;;;;;;;;;;;21.40;39.50;;;;;;5114122;28;20494;-51
2023/11/18 02:59:10;;;;;;;;;;;21.30;39.40;;;;;;5114487;28;20375;-53
2023/11/18 03:01:41;;;;;;;;;;;21.30;39.40;;;;;;5114119;28;19924;-53
2023/11/18 03:04:08;;;;;;;;;;;21.30;39.40;;;;;;5114170;28;20035;-55
2023/11/18 03:06:35;;;;;;;;;;;21.30;39.30;;;;;;5113629;28;19935;-54
2023/11/18 03:09:06;;;;;;;;;;;21.30;39.90;;;;;;5114028;28;20287;-54
2023/11/18 03:11:34;;;;;;;;;;;21.30;39.30;;;;;;5114333;28;19928;-52
2023/11/18 03:14:01;;;;;;;;;;;21.30;39.30;;;;;;5114371;28;20007;-51
2023/11/18 03:16:28;;;;;;;;;;;21.30;39.40;;;;;;5113851;28;20376;-53
2023/11/18 03:18:58;;;;;;;;;;;21.30;39.40;;;;;;5113616;28;19930;-54
2023/11/18 03:21:26;;;;;;;;;;;21.30;39.40;;;;;;5113980;28;19924;-55
2023/11/18 03:23:53;;;;;;;;;;;21.30;39.40;;;;;;5096233;28;19923;-53
2023/11/18 03:26:21;;;;;;;;;;;21.30;39.40;;;;;;5114125;28;20347;-55
2023/11/18 03:28:48;;;;;;;;;;;21.30;39.40;;;;;;5113856;28;19977;-52
2023/11/18 03:31:15;;;;;;;;;;;21.30;39.40;;;;;;5113745;28;19927;-55
2023/11/18 03:33:42;;;;;;;;;;;21.30;39.50;;;;;;5114273;28;20290;-55
2023/11/18 03:36:11;;;;;;;;;;;21.30;39.50;;;;;;5113929;28;19963;-52
2023/11/18 03:38:39;;;;;;;;;;;21.30;39.50;;;;;;5113680;28;20430;-57
2023/11/18 03:41:08;;;;;;;;;;;21.30;39.50;;;;;;5113756;28;19928;-51
2023/11/18 03:43:37;;;;;;;;;;;21.30;39.50;;;;;;5113762;28;19924;-54
2023/11/18 03:46:04;;;;;;;;;;;21.30;39.50;;;;;;5113703;28;19928;-55
2023/11/18 03:48:31;;;;;;;;;;;21.30;39.50;;;;;;5113973;28;19930;-51
2023/11/18 03:50:58;;;;;;;;;;;21.30;39.50;;;;;;5113866;28;19923;-53
2023/11/18 03:53:25;;;;;;;;;;;21.30;39.50;;;;;;5113946;28;19923;-54
2023/11/18 03:55:52;;;;;;;;;;;21.30;39.40;;;;;;5113607;28;20378;-51
2023/11/18 03:58:19;;;;;;;;;;;21.30;39.40;;;;;;5113344;28;19924;-53
2023/11/18 04:00:46;;;;;;;;;;;21.30;39.40;;;;;;5113965;28;19977;-54
2023/11/18 04:03:13;;;;;;;;;;;21.30;39.40;;;;;;5113843;28;19981;-52
2023/11/18 04:05:40;;;;;;;;;;;21.30;39.40;;;;;;5113669;28;19997;-51
2023/11/18 04:08:07;;;;;;;;;;;21.20;39.60;;;;;;5113829;28;20364;-52
2023/11/18 04:10:34;;;;;;;;;;;21.30;39.40;;;;;;5113892;28;19924;-52
2023/11/18 04:13:02;;;;;;;;;;;21.20;39.40;;;;;;5129134;28;20006;-54
2023/11/18 04:15:29;;;;;;;;;;;21.30;39.40;;;;;;5113449;28;19923;-54
2023/11/18 04:17:57;;;;;;;;;;;21.30;39.50;;;;;;5113741;28;19924;-55
2023/11/18 04:20:24;;;;;;;;;;;21.20;39.40;;;;;;5117567;28;19924;-52
2023/11/18 04:22:51;;;;;;;;;;;21.20;39.50;;;;;;5117531;28;19997;-54
2023/11/18 04:25:18;;;;;;;;;;;21.20;39.50;;;;;;5116912;28;20014;-52
2023/11/18 04:27:45;;;;;;;;;;;21.20;39.40;;;;;;5117384;28;19978;-54
2023/11/18 04:30:13;;;;;;;;;;;21.30;39.50;;;;;;5117301;28;19924;-54
2023/11/18 04:32:42;;;;;;;;;;;21.30;39.50;;;;;;5116965;28;20391;-55
2023/11/18 04:35:11;;;;;;;;;;;21.30;39.50;;;;;;5117223;28;19927;-50
2023/11/18 04:37:42;;;;;;;;;;;21.20;39.50;;;;;;5117234;28;19923;-55
2023/11/18 04:40:10;;;;;;;;;;;21.20;39.30;;;;;;5116922;28;20006;-51
2023/11/18 04:42:38;;;;;;;;;;;21.30;39.10;;;;;;5116773;28;20368;-55
2023/11/18 04:45:06;;;;;;;;;;;21.30;38.80;;;;;;5116543;28;19977;-52
2023/11/18 04:47:32;;;;;;;;;;;21.30;38.60;;;;;;5098576;28;20022;-52
2023/11/18 04:50:00;;;;;;;;;;;21.30;38.50;;;;;;5117023;28;19924;-51
2023/11/18 04:52:27;;;;;;;;;;;21.30;38.40;;;;;;5098952;28;20324;-53
2023/11/18 04:54:54;;;;;;;;;;;21.30;38.10;;;;;;5116433;28;19950;-55
2023/11/18 04:57:21;;;;;;;;;;;21.30;38.20;;;;;;5116605;28;20325;-50
2023/11/18 04:59:49;;;;;;;;;;;21.30;38.20;;;;;;5116454;28;19954;-54
2023/11/18 05:02:16;;;;;;;;;;;21.30;38.90;;;;;;5116699;28;19928;-55
2023/11/18 05:04:43;;;;;;;;;;;21.30;38.50;;;;;;5116361;28;19924;-54
2023/11/18 05:07:10;;;;;;;;;;;21.20;38.40;;;;;;5116523;28;19931;-53
2023/11/18 05:09:37;;;;;;;;;;;21.20;38.80;;;;;;5116363;28;19924;-52
2023/11/18 05:12:04;;;;;;;;;;;21.20;38.20;;;;;;5116324;28;19924;-54
2023/11/18 05:14:32;;;;;;;;;;;21.20;38.10;;;;;;5115840;28;19975;-54
2023/11/18 05:17:04;;;;;;;;;;;21.20;38.10;;;;;;5136354;27;19924;-55
2023/11/18 05:19:32;;;;;;;;;;;21.20;38.00;;;;;;5136641;27;19923;-52
2023/11/18 05:21:59;;;;;;;;;;;21.20;38.00;;;;;;5136723;27;19930;-55
2023/11/18 05:24:27;;;;;;;;;;;21.20;38.00;;;;;;5136939;27;20292;-52
2023/11/18 05:26:54;;;;;;;;;;;21.30;38.00;;;;;;5136471;27;19976;-55
2023/11/18 05:29:21;;;;;;;;;;;21.30;38.00;;;;;;5136818;27;19927;-55
2023/11/18 05:31:48;;;;;;;;;;;21.30;38.00;;;;;;5115288;28;19982;-55
2023/11/18 05:34:15;;;;;;;;;;;21.30;37.90;;;;;;5115876;28;19924;-52
2023/11/18 05:36:42;;;;;;;;;;;21.30;37.80;;;;;;5115631;28;19975;-53
2023/11/18 05:39:09;;;;;;;;;;;21.30;37.80;;;;;;5115927;28;19981;-52
2023/11/18 05:41:39;;;;;;;;;;;21.30;37.80;;;;;;5116057;28;19923;-54
2023/11/18 05:44:09;;;;;;;;;;;21.30;37.80;;;;;;5115737;28;19923;-53
2023/11/18 05:46:37;;;;;;;;;;;21.30;37.70;;;;;;5115925;28;19971;-54
2023/11/18 05:49:08;;;;;;;;;;;21.30;37.60;;;;;;5115951;28;19930;-55
2023/11/18 05:51:35;;;;;;;;;;;21.30;37.60;;;;;;5115815;28;19971;-60
2023/11/18 05:54:02;;;;;;;;;;;21.30;37.60;;;;;;5115217;28;19923;-57
2023/11/18 05:56:29;;;;;;;;;;;21.30;37.50;;;;;;5115676;28;19923;-57
2023/11/18 05:58:56;;;;;;;;;;;21.30;37.50;;;;;;5115524;28;19985;-55
2023/11/18 06:01:27;;;;;;;;;;;21.30;37.50;;;;;;5115354;28;19924;-57
2023/11/18 06:03:54;;;;;;;;;;;21.30;37.40;;;;;;5115574;28;19923;-61
2023/11/18 06:06:21;;;;;;;;;;;21.40;37.40;;;;;;5115175;28;20405;-59
2023/11/18 06:08:51;;;;;;;;;;;21.40;37.40;;;;;;5115184;28;19969;-55
2023/11/18 06:11:19;;;;;;;;;;;21.40;37.40;;;;;;5115505;28;19977;-54
2023/11/18 06:13:47;;;;;;;;;;;21.40;37.50;;;;;;5115349;28;19971;-54
2023/11/18 06:16:15;;;;;;;;;;;21.40;37.40;;;;;;5114773;28;19930;-55
2023/11/18 06:18:44;;;;;;;;;;;21.40;37.40;;;;;;5114924;28;20027;-53
2023/11/18 06:21:12;;;;;;;;;;;21.40;37.40;;;;;;5114774;28;19930;-53
2023/11/18 06:23:39;;;;;;;;;;;21.40;37.90;;;;;;5114917;28;19928;-55
2023/11/18 06:26:07;;;;;;;;;;;21.40;37.30;;;;;;5114915;28;19924;-55
2023/11/18 06:28:34;;;;;;;;;;;21.40;37.10;;;;;;5114640;28;19970;-54
2023/11/18 06:31:01;;;;;;;;;;;21.40;37.10;;;;;;5114666;28;19935;-52
2023/11/18 06:33:28;;;;;;;;;;;21.40;37.00;;;;;;5115080;28;19928;-54
2023/11/18 06:35:56;;;;;;;;;;;21.40;36.90;;;;;;5114555;28;19930;-54
2023/11/18 06:38:24;;;;;;;;;;;21.50;36.90;;;;;;5114792;28;19924;-52
2023/11/18 06:40:52;;;;;;;;;;;21.50;36.70;;;;;;5114576;28;19934;-55
2023/11/18 06:43:20;;;;;;;;;;;21.50;36.70;;;;;;5095612;28;19923;-53
2023/11/18 06:45:48;;;;;;;;;;;21.60;36.80;;;;;;5114846;28;20355;-55
2023/11/18 06:48:15;;;;;;;;;;;21.60;36.70;;;;;;5096752;28;20300;-54
2023/11/18 06:50:44;;;;;;;;;;;21.50;36.60;;;;;;5114661;28;19924;-52
2023/11/18 06:53:11;;;;;;;;;;;21.60;36.70;;;;;;5114675;28;19924;-58
2023/11/18 06:55:38;;;;;;;;;;;21.60;36.60;;;;;;5095738;28;19955;-53
2023/11/18 06:58:06;;;;;;;;;;;21.60;36.50;;;;;;5096461;28;19924;-55
2023/11/18 07:00:33;;;;;;;;;;;21.60;36.50;;;;;;5114216;28;19969;-53
2023/11/18 07:03:01;;;;;;;;;;;21.70;36.60;;;;;;5114365;28;19959;-54
2023/11/18 07:05:28;;;;;;;;;;;21.70;36.60;;;;;;5114111;28;20418;-54
2023/11/18 07:07:55;;;;;;;;;;;21.70;36.50;;;;;;5114473;28;20286;-55
2023/11/18 07:10:23;;;;;;;;;;;21.70;36.50;;;;;;5114076;28;19923;-55
2023/11/18 07:12:50;;;;;;;;;;;21.70;36.40;;;;;;5114158;28;19924;-55
2023/11/18 07:15:17;;;;;;;;;;;21.80;36.50;;;;;;5114181;28;19930;-55
2023/11/18 07:17:44;;;;;;;;;;;21.80;36.40;;;;;;5114243;28;20280;-54
2023/11/18 07:20:13;;;;;;;;;;;21.80;36.40;;;;;;5114026;28;19931;-54
2023/11/18 07:22:40;;;;;;;;;;;21.80;36.40;;;;;;5114305;28;19931;-55
2023/11/18 07:25:09;;;;;;;;;;;21.80;36.40;;;;;;5113821;28;19935;-54
2023/11/18 07:27:36;;;;;;;;;;;21.80;36.30;;;;;;5114179;28;19924;-53
2023/11/18 07:30:10;;;;;;;;;;;21.80;36.30;;;;;;5113176;28;19932;-55
2023/11/18 07:32:37;;;;;;;;;;;21.80;36.30;;;;;;5113652;28;19923;-55
2023/11/18 07:35:08;;;;;;;;;;;21.80;36.30;;;;;;5114195;28;20265;-53
2023/11/18 07:37:36;;;;;;;;;;;21.90;36.40;;;;;;5113172;28;19985;-52
2023/11/18 07:40:05;;;;;;;;;;;21.90;36.40;;;;;;5113895;28;20022;-54
2023/11/18 07:42:34;;;;;;;;;;;21.90;36.40;;;;;;5113717;28;19932;-50
2023/11/18 07:45:04;;;;;;;;;;;21.90;36.40;;;;;;5113480;28;19934;-55
2023/11/18 07:47:31;;;;;;;;;;;21.90;36.30;;;;;;5113841;28;20044;-55
2023/11/18 07:49:59;;;;;;;;;;;21.90;36.30;;;;;;5113617;28;19937;-54
2023/11/18 07:52:27;;;;;;;;;;;22.00;36.30;;;;;;5114196;28;19931;-54
2023/11/18 07:54:57;;;;;;;;;;;22.00;36.30;;;;;;5116882;28;20390;-55
2023/11/18 07:57:24;;;;;;;;;;;22.00;36.20;;;;;;5117789;28;20264;-55
2023/11/18 07:59:53;;;;;;;;;;;22.00;36.10;;;;;;5117693;28;19928;-52
2023/11/18 08:02:20;;;;;;;;;;;22.00;36.10;;;;;;5117911;28;19923;-55
2023/11/18 08:04:47;;;;;;;;;;;22.00;36.00;;;;;;5117954;28;19928;-55
2023/11/18 08:07:14;;;;;;;;;;;22.00;36.00;;;;;;5117730;28;20376;-53
2023/11/18 08:09:43;;;;;;;;;;;22.00;35.80;;;;;;5117464;28;19971;-54
2023/11/18 08:12:10;;;;;;;;;;;22.00;35.90;;;;;;5117355;28;20368;-51
2023/11/18 08:14:37;;;;;;;;;;;22.00;35.90;;;;;;5117417;28;20418;-55
2023/11/18 08:17:04;;;;;;;;;;;22.10;35.80;;;;;;5117071;28;19977;-55
2023/11/18 08:19:34;;;;;;;;;;;22.10;35.80;;;;;;5117727;28;19969;-55
2023/11/18 08:22:01;;;;;;;;;;;22.10;35.80;;;;;;5117626;28;19924;-55
2023/11/18 08:24:29;;;;;;;;;;;22.10;36.00;;;;;;5117229;28;20003;-53
2023/11/18 08:26:56;;;;;;;;;;;22.10;35.70;;;;;;5117058;28;19931;-54
2023/11/18 08:29:27;;;;;;;;;;;22.10;35.60;;;;;;5117104;28;19928;-54
2023/11/18 08:31:54;;;;;;;;;;;22.10;35.60;;;;;;5117064;28;19963;-54
2023/11/18 08:34:21;;;;;;;;;;;22.10;35.70;;;;;;5117272;28;19923;-54
2023/11/18 08:36:51;;;;;;;;;;;22.10;35.50;;;;;;5116894;28;19977;-55
2023/11/18 08:39:20;;;;;;;;;;;22.10;35.40;;;;;;5110311;28;19974;-55
2023/11/18 08:41:50;;;;;;;;;;;22.20;35.40;;;;;;5116896;28;20379;-53
2023/11/18 08:44:17;;;;;;;;;;;22.20;35.40;;;;;;5114858;27;19927;-55
2023/11/18 08:46:53;;;;;;;;;;;22.20;35.40;;;;;;5108845;28;20029;-55
2023/11/18 08:49:23;;;;;;;;;;;22.20;35.40;;;;;;5108904;28;19965;-55
2023/11/18 08:51:55;;;;;;;;;;;22.20;35.30;;;;;;5112351;28;19928;-56
2023/11/18 08:54:25;;;;;;;;;;;22.20;35.30;;;;;;5116298;28;19931;-55
2023/11/18 08:56:54;;;;;;;;;;;22.20;35.20;;;;;;5095583;28;19931;-58
2023/11/18 08:59:27;;;;;;;;;;;22.20;35.20;;;;;;5116322;28;19923;-61
2023/11/18 09:01:59;;;;;;;;;;;22.30;35.20;;;;;;5112960;28;19923;-56
2023/11/18 09:04:27;;;;;;;;;;;22.30;35.00;;;;;;5132011;27;19924;-55
2023/11/18 09:06:54;;;;;;;;;;;22.30;35.00;;;;;;5115786;28;19931;-58
2023/11/18 09:09:27;;;;;;;;;;;22.30;35.00;;;;;;5116465;28;19931;-56
2023/11/18 09:11:56;;;;;;;;;;;22.30;34.90;;;;;;5116349;28;19928;-55
2023/11/18 09:14:26;;;;;;;;;;;22.40;34.90;;;;;;5116559;28;19934;-58
2023/11/18 09:16:58;;;;;;;;;;;22.40;34.90;;;;;;5116016;28;20334;-64
2023/11/18 09:19:26;;;;;;;;;;;22.40;34.90;;;;;;5113484;28;19924;-57
2023/11/18 09:21:54;;;;;;;;;;;22.40;34.90;;;;;;5111616;28;19977;-58
2023/11/18 09:24:24;;;;;;;;;;;22.50;34.90;;;;;;5104853;28;19931;-60
2023/11/18 09:26:52;;;;;;;;;;;22.50;34.80;;;;;;5115259;28;20389;-61
2023/11/18 09:29:23;;;;;;;;;;;22.50;34.70;;;;;;5113724;28;20026;-58
2023/11/18 09:31:52;;;;;;;;;;;22.50;34.70;;;;;;5115419;28;19930;-58
2023/11/18 09:34:26;;;;;;;;;;;22.50;34.60;;;;;;5110458;28;19931;-60
2023/11/18 09:36:54;;;;;;;;;;;22.60;34.60;;;;;;5112644;28;19932;-56
2023/11/18 09:39:37;;;;;;;;;;;22.50;34.60;;;;;;5115258;27;20036;-54
2023/11/18 09:42:08;;;;;;;;;;;22.60;34.60;;;;;;5114977;28;19930;-53
2023/11/18 09:44:37;;;;;;;;;;;22.60;34.60;;;;;;5114938;27;20302;-54
2023/11/18 09:47:09;;;;;;;;;;;22.60;34.50;;;;;;5112002;28;19935;-51
2023/11/18 09:49:40;;;;;;;;;;;22.60;34.40;;;;;;5118440;27;19924;-60
2023/11/18 09:52:08;;;;;;;;;;;22.60;34.30;;;;;;5114144;28;20423;-54
2023/11/18 09:54:52;;;;;;;;;;;22.60;34.30;;;;;;5115790;28;19968;-54
2023/11/18 09:57:37;;;;;;;;;;;22.60;34.30;;;;;;5106035;28;20361;-53
2023/11/18 10:00:21;;;;;;;;;;;22.60;34.20;;;;;;5115089;28;19927;-54
2023/11/18 10:02:50;;;;;;;;;;;22.60;34.20;;;;;;5135773;27;19931;-55
2023/11/18 10:05:26;;;;;;;;;;;22.60;34.20;;;;;;5135726;27;19924;-56
2023/11/18 10:07:54;;;;;;;;;;;22.60;34.20;;;;;;5135569;27;19927;-53
2023/11/18 10:10:21;;;;;;;;;;;22.60;34.10;;;;;;5135888;27;19978;-50
2023/11/18 10:12:52;;;;;;;;;;;22.70;34.00;;;;;;5135861;27;20004;-50
2023/11/18 10:15:23;;;;;;;;;;;22.60;33.90;;;;;;5118398;27;19950;-55
2023/11/18 10:17:59;;;;;;;;;;;22.70;34.00;;;;;;5110874;28;19931;-52
2023/11/18 10:20:47;;;;;;;;;;;22.70;33.90;;;;;;5107852;28;19924;-53
2023/11/18 10:23:19;;;;;;;;;;;22.70;33.80;;;;;;5097213;28;19935;-55
2023/11/18 10:25:49;;;;;;;;;;;22.70;33.80;;;;;;5115073;28;19949;-54
2023/11/18 10:28:23;;;;;;;;;;;22.70;33.80;;;;;;5114959;28;20010;-55
2023/11/18 10:30:50;;;;;;;;;;;22.70;33.70;;;;;;5115003;28;19927;-55
2023/11/18 10:33:18;;;;;;;;;;;22.70;33.70;;;;;;5096640;28;19924;-54
2023/11/18 10:35:52;;;;;;;;;;;22.70;33.60;;;;;;5113998;28;19928;-54
2023/11/18 10:38:19;;;;;;;;;;;22.70;33.60;;;;;;5114607;28;19924;-54
2023/11/18 10:40:46;;;;;;;;;;;22.70;33.60;;;;;;5096891;28;19971;-55
2023/11/18 10:43:16;;;;;;;;;;;22.70;33.60;;;;;;5114341;28;20391;-54
2023/11/18 10:45:46;;;;;;;;;;;22.70;33.40;;;;;;5114526;28;20376;-52
2023/11/18 10:48:16;;;;;;;;;;;22.70;33.40;;;;;;5114591;28;19972;-53
2023/11/18 10:50:49;;;;;;;;;;;22.70;33.40;;;;;;5096916;28;20039;-55
2023/11/18 10:53:18;;;;;;;;;;;22.70;33.40;;;;;;5114339;28;19924;-55
2023/11/18 10:55:45;;;;;;;;;;;22.70;33.40;;;;;;5114306;28;20010;-60
2023/11/18 10:58:14;;;;;;;;;;;22.80;33.30;;;;;;5114176;28;20014;-53
2023/11/18 11:00:53;;;;;;;;;;;22.80;33.30;;;;;;5114251;28;20446;-55
2023/11/18 11:03:23;;;;;;;;;;;22.80;33.30;;;;;;5114465;28;19982;-54
2023/11/18 11:05:52;;;;;;;;;;;22.80;33.20;;;;;;5114454;28;19923;-54
2023/11/18 11:08:20;;;;;;;;;;;22.80;33.10;;;;;;5088355;28;19946;-55
2023/11/18 11:11:03;;;;;;;;;;;22.80;33.10;;;;;;5114330;28;20288;-54
2023/11/18 11:13:32;;;;;;;;;;;22.80;32.90;;;;;;5113842;28;20303;-54
2023/11/18 11:16:01;;;;;;;;;;;22.80;32.90;;;;;;5114046;28;20011;-56
2023/11/18 11:18:34;;;;;;;;;;;22.80;32.80;;;;;;5114175;28;19970;-55
2023/11/18 11:21:16;;;;;;;;;;;22.80;32.80;;;;;;5113951;28;20022;-55
2023/11/18 11:23:55;;;;;;;;;;;22.80;32.80;;;;;;5114274;28;19971;-55
2023/11/18 11:26:43;;;;;;;;;;;22.80;32.70;;;;;;5114084;28;19977;-55
2023/11/18 11:29:18;;;;;;;;;;;22.80;32.70;;;;;;5098525;28;20431;-55
2023/11/18 11:31:52;;;;;;;;;;;22.90;32.60;;;;;;5113903;28;19924;-53
2023/11/18 11:34:20;;;;;;;;;;;22.80;32.60;;;;;;5113725;28;19931;-55
2023/11/18 11:36:51;;;;;;;;;;;22.90;32.60;;;;;;5113830;28;20430;-53
2023/11/18 11:39:25;;;;;;;;;;;22.90;32.50;;;;;;5095989;28;20048;-55
2023/11/18 11:41:56;;;;;;;;;;;22.90;32.50;;;;;;5113567;28;19924;-54
2023/11/18 11:44:31;;;;;;;;;;;22.90;32.50;;;;;;5113921;28;19927;-56
2023/11/18 11:47:00;;;;;;;;;;;22.90;32.50;;;;;;5113341;28;20330;-55
2023/11/18 11:49:34;;;;;;;;;;;22.90;32.50;;;;;;5113661;28;20027;-55
2023/11/18 11:52:10;;;;;;;;;;;23.00;32.50;;;;;;5113694;28;19924;-56
2023/11/18 11:54:56;;;;;;;;;;;23.00;32.40;;;;;;5113576;28;20027;-56
2023/11/18 11:57:26;;;;;;;;;;;22.90;32.30;;;;;;5113868;28;20430;-53
2023/11/18 12:00:00;;;;;;;;;;;22.90;32.30;;;;;;5113287;28;19924;-55
2023/11/18 12:02:32;;;;;;;;;;;22.90;32.30;;;;;;5113484;28;19924;-55
2023/11/18 12:05:05;;;;;;;;;;;22.90;32.30;;;;;;5113435;28;19924;-56
2023/11/18 12:07:38;;;;;;;;;;;22.90;32.30;;;;;;5113623;28;19930;-55
2023/11/18 12:10:08;;;;;;;;;;;22.90;32.30;;;;;;5113791;28;19924;-60
2023/11/18 12:12:35;;;;;;;;;;;22.90;32.30;;;;;;5113393;28;19932;-55
2023/11/18 12:15:18;;;;;;;;;;;22.90;32.30;;;;;;5113222;28;19977;-58
2023/11/18 12:18:07;;;;;;;;;;;22.90;32.20;;;;;;5113329;28;19931;-54
2023/11/18 12:20:48;;;;;;;;;;;23.00;32.30;;;;;;5098806;28;19927;-55
2023/11/18 12:23:18;;;;;;;;;;;22.90;32.10;;;;;;5113281;28;19974;-52
2023/11/18 12:25:45;;;;;;;;;;;23.00;32.20;;;;;;5113332;28;19924;-55
2023/11/18 12:28:16;;;;;;;;;;;23.00;32.10;;;;;;5113118;28;19923;-54
2023/11/18 12:30:51;;;;;;;;;;;23.00;32.10;;;;;;5113482;28;19979;-56
2023/11/18 12:33:22;;;;;;;;;;;23.00;32.00;;;;;;5113491;28;19930;-53
2023/11/18 12:36:10;;;;;;;;;;;23.00;32.00;;;;;;5113287;28;20379;-55
2023/11/18 12:38:57;;;;;;;;;;;23.00;31.90;;;;;;5098528;28;19923;-55
2023/11/18 12:41:34;;;;;;;;;;;23.00;31.90;;;;;;5100942;28;19927;-55
2023/11/18 12:44:17;;;;;;;;;;;23.10;31.90;;;;;;5117126;28;19966;-54
2023/11/18 12:46:55;;;;;;;;;;;23.00;31.90;;;;;;5117114;28;19924;-55
2023/11/18 12:49:27;;;;;;;;;;;23.00;31.90;;;;;;5117096;28;20010;-56
2023/11/18 12:51:55;;;;;;;;;;;23.00;31.80;;;;;;5116701;28;19928;-55
2023/11/18 12:54:30;;;;;;;;;;;23.00;31.80;;;;;;5116666;28;19928;-56
2023/11/18 12:56:57;;;;;;;;;;;23.00;31.80;;;;;;5116496;28;19924;-55
2023/11/18 12:59:30;;;;;;;;;;;23.00;31.80;;;;;;5116583;28;19978;-54
2023/11/18 13:01:57;;;;;;;;;;;23.00;31.80;;;;;;5099407;28;19924;-55
2023/11/18 13:04:26;;;;;;;;;;;23.00;31.80;;;;;;5116561;28;20384;-56
2023/11/18 13:06:54;;;;;;;;;;;23.00;31.80;;;;;;5116536;28;19924;-56
2023/11/18 13:09:25;;;;;;;;;;;22.90;31.80;;;;;;5116695;28;19966;-56
2023/11/18 13:11:55;;;;;;;;;;;23.00;31.80;;;;;;5116320;28;20043;-55
2023/11/18 13:14:25;;;;;;;;;;;22.90;31.80;;;;;;5115842;28;19928;-56
2023/11/18 13:16:56;;;;;;;;;;;22.90;31.80;;;;;;5116201;28;19970;-56
2023/11/18 13:19:23;;;;;;;;;;;22.90;31.80;;;;;;5116459;28;19924;-56
2023/11/18 13:21:50;;;;;;;;;;;22.90;31.80;;;;;;5115981;28;19924;-53
2023/11/18 13:24:17;;;;;;;;;;;22.90;31.80;;;;;;5116223;28;19928;-56
2023/11/18 13:26:44;;;;;;;;;;;22.90;31.80;;;;;;5115880;28;20425;-56
2023/11/18 13:29:12;;;;;;;;;;;22.90;31.80;;;;;;5116246;28;19924;-55
2023/11/18 13:31:40;;;;;;;;;;;22.90;31.80;;;;;;5115755;28;19997;-53
2023/11/18 13:34:07;;;;;;;;;;;22.90;31.80;;;;;;5116270;28;19923;-54
2023/11/18 13:36:35;;;;;;;;;;;22.90;31.90;;;;;;5115776;28;19924;-56
2023/11/18 13:39:02;;;;;;;;;;;22.90;31.80;;;;;;5116136;28;20342;-55
2023/11/18 13:41:30;;;;;;;;;;;22.80;31.70;;;;;;5115623;28;19946;-55
2023/11/18 13:43:58;;;;;;;;;;;22.80;31.70;;;;;;5098118;28;19974;-56
2023/11/18 13:46:25;;;;;;;;;;;22.80;31.70;;;;;;5115487;28;20380;-55
2023/11/18 13:48:53;;;;;;;;;;;22.90;31.70;;;;;;5115478;28;19924;-56
2023/11/18 13:51:21;;;;;;;;;;;22.90;31.70;;;;;;5115442;28;19930;-56
2023/11/18 13:53:48;;;;;;;;;;;22.80;31.60;;;;;;5097549;28;19924;-55
2023/11/18 13:56:18;;;;;;;;;;;22.80;31.50;;;;;;5115814;28;19935;-55
2023/11/18 13:58:46;;;;;;;;;;;22.80;31.50;;;;;;5115700;28;19967;-56
2023/11/18 14:01:14;;;;;;;;;;;22.80;31.50;;;;;;5115535;28;20323;-56
2023/11/18 14:03:43;;;;;;;;;;;22.80;31.50;;;;;;5115412;28;20368;-55
2023/11/18 14:06:10;;;;;;;;;;;22.80;31.50;;;;;;5115572;28;19923;-54
2023/11/18 14:08:41;;;;;;;;;;;22.80;31.50;;;;;;5115151;28;19923;-53
2023/11/18 14:11:09;;;;;;;;;;;22.80;31.50;;;;;;5115437;28;20014;-56
2023/11/18 14:13:43;;;;;;;;;;;22.80;31.70;;;;;;5115083;28;19924;-56
2023/11/18 14:16:12;;;;;;;;;;;22.80;31.70;;;;;;5114912;28;19923;-54
2023/11/18 14:18:41;;;;;;;;;;;22.80;31.70;;;;;;5115156;28;19924;-56
2023/11/18 14:21:09;;;;;;;;;;;22.80;31.80;;;;;;5115155;28;19970;-56
2023/11/18 14:23:37;;;;;;;;;;;22.80;31.80;;;;;;5115061;28;20001;-54
2023/11/18 14:26:07;;;;;;;;;;;22.80;31.80;;;;;;5114769;28;19923;-59
2023/11/18 14:28:35;;;;;;;;;;;22.70;31.80;;;;;;5114670;28;19969;-55